createdAt,value
2023-01-25T00:00:17.832Z,3.57
2023-01-25T00:03:05.802Z,3.60
2023-01-25T00:05:34.055Z,3.68
2023-01-25T00:08:03.468Z,3.60
2023-01-25T00:10:31.513Z,3.31
2023-01-25T00:12:59.091Z,3.50
2023-01-25T00:15:27.416Z,3.77
2023-01-25T00:17:55.154Z,3.85
2023-01-25T00:20:23.325Z,3.79
2023-01-25T00:22:50.930Z,3.88
2023-01-25T00:25:20.571Z,3.86
2023-01-25T00:27:47.950Z,3.77
2023-01-25T00:30:16.605Z,3.74
2023-01-25T00:32:58.330Z,4.08
2023-01-25T00:35:31.005Z,4.21
2023-01-25T00:38:02.898Z,4.30
2023-01-25T00:40:32.461Z,4.28
2023-01-25T00:43:00.111Z,4.27
2023-01-25T00:45:28.186Z,4.20
2023-01-25T00:47:56.230Z,4.18
2023-01-25T00:50:24.230Z,4.05
2023-01-25T00:52:51.825Z,4.02
2023-01-25T00:55:20.140Z,3.96
2023-01-25T00:57:49.234Z,3.95
2023-01-25T01:00:17.728Z,3.97
2023-01-25T01:02:45.398Z,3.92
2023-01-25T01:05:13.909Z,3.39
2023-01-25T01:07:41.488Z,3.22
2023-01-25T01:10:10.623Z,3.22
2023-01-25T01:12:38.254Z,3.49
2023-01-25T01:15:09.449Z,3.71
2023-01-25T01:17:37.245Z,3.84
2023-01-25T01:20:06.529Z,3.74
2023-01-25T01:22:34.042Z,3.62
2023-01-25T01:25:02.116Z,3.56
2023-01-25T01:27:29.779Z,3.66
2023-01-25T01:29:57.694Z,3.67
2023-01-25T01:32:26.966Z,3.86
2023-01-25T01:34:54.907Z,3.74
2023-01-25T01:37:22.581Z,3.30
2023-01-25T01:39:52.479Z,3.17
2023-01-25T01:42:19.895Z,3.37
2023-01-25T01:44:49.092Z,3.54
2023-01-25T01:47:23.081Z,3.68
2023-01-25T01:49:56.265Z,3.83
2023-01-25T01:52:28.776Z,3.88
2023-01-25T01:55:02.100Z,3.96
2023-01-25T01:57:34.798Z,3.65
2023-01-25T02:00:06.269Z,3.35
2023-01-25T02:02:34.285Z,3.32
2023-01-25T02:05:07.385Z,3.63
2023-01-25T02:07:36.314Z,3.79
2023-01-25T02:10:06.091Z,3.87
2023-01-25T02:12:33.813Z,3.68
2023-01-25T02:15:01.776Z,3.69
2023-01-25T02:17:30.904Z,3.73
2023-01-25T02:20:03.724Z,3.53
2023-01-25T02:22:41.085Z,3.50
2023-01-25T02:25:13.658Z,3.62
2023-01-25T02:27:46.326Z,3.58
2023-01-25T02:30:14.859Z,3.32
2023-01-25T02:32:42.833Z,3.26
2023-01-25T02:35:18.622Z,3.10
2023-01-25T02:37:47.108Z,3.04
2023-01-25T02:40:17.523Z,2.88
2023-01-25T02:42:45.889Z,2.95
2023-01-25T02:45:17.893Z,3.35
2023-01-25T02:47:45.443Z,3.51
2023-01-25T02:50:15.117Z,3.52
2023-01-25T02:52:43.397Z,3.50
2023-01-25T02:55:11.675Z,3.55
2023-01-25T02:57:40.704Z,3.36
2023-01-25T03:00:09.934Z,3.56
2023-01-25T03:02:37.477Z,3.78
2023-01-25T03:05:06.544Z,3.94
2023-01-25T03:07:34.143Z,3.91
2023-01-25T03:10:02.051Z,3.77
2023-01-25T03:12:29.590Z,3.75
2023-01-25T03:14:58.990Z,3.94
2023-01-25T03:17:26.854Z,4.12
2023-01-25T03:19:54.674Z,4.18
2023-01-25T03:22:22.325Z,4.03
2023-01-25T03:24:50.328Z,3.92
2023-01-25T03:27:17.763Z,3.85
2023-01-25T03:29:45.840Z,3.56
2023-01-25T03:32:15.230Z,3.52
2023-01-25T03:34:43.131Z,3.30
2023-01-25T03:37:10.615Z,3.46
2023-01-25T03:39:38.445Z,3.67
2023-01-25T03:42:06.567Z,3.68
2023-01-25T03:44:34.653Z,3.48
2023-01-25T03:47:02.428Z,3.59
2023-01-25T03:49:31.926Z,3.77
2023-01-25T03:51:59.558Z,3.70
2023-01-25T03:54:27.531Z,3.66
2023-01-25T03:56:55.056Z,3.77
2023-01-25T03:59:22.907Z,3.97
2023-01-25T04:01:50.642Z,4.10
2023-01-25T04:04:18.731Z,4.23
2023-01-25T04:06:47.776Z,4.37
2023-01-25T04:09:15.593Z,4.13
2023-01-25T04:11:43.119Z,3.81
2023-01-25T04:14:11.530Z,3.64
2023-01-25T04:16:39.181Z,3.39
2023-01-25T04:19:07.545Z,3.20
2023-01-25T04:21:35.022Z,3.32
2023-01-25T04:24:12.534Z,3.39
2023-01-25T04:26:39.921Z,3.46
2023-01-25T04:29:07.988Z,3.48
2023-01-25T04:31:35.676Z,3.27
2023-01-25T04:34:03.929Z,3.22
2023-01-25T04:36:31.746Z,3.23
2023-01-25T04:38:59.929Z,3.30
2023-01-25T04:41:29.254Z,3.40
2023-01-25T04:43:57.645Z,3.34
2023-01-25T04:46:25.263Z,3.37
2023-01-25T04:48:53.125Z,3.37
2023-01-25T04:51:20.597Z,3.36
2023-01-25T04:53:48.531Z,3.39
2023-01-25T04:56:16.377Z,3.49
2023-01-25T04:58:45.970Z,3.61
2023-01-25T05:01:13.581Z,3.43
2023-01-25T05:03:41.731Z,3.36
2023-01-25T05:06:09.390Z,3.31
2023-01-25T05:08:37.281Z,3.13
2023-01-25T05:11:05.029Z,2.85
2023-01-25T05:13:33.078Z,2.85
2023-01-25T05:16:02.078Z,2.88
2023-01-25T05:18:39.059Z,3.09
2023-01-25T05:21:14.972Z,3.19
2023-01-25T05:23:42.871Z,3.02
2023-01-25T05:26:10.820Z,2.90
2023-01-25T05:28:39.080Z,3.02
2023-01-25T05:31:08.435Z,2.81
2023-01-25T05:33:36.576Z,2.87
2023-01-25T05:36:10.429Z,3.20
2023-01-25T05:38:38.465Z,3.36
2023-01-25T05:41:06.145Z,3.33
2023-01-25T05:43:34.074Z,3.09
2023-01-25T05:46:01.561Z,3.07
2023-01-25T05:48:30.990Z,3.06
2023-01-25T05:50:58.557Z,3.10
2023-01-25T05:53:26.616Z,3.05
2023-01-25T05:55:54.446Z,3.16
2023-01-25T05:58:22.749Z,3.27
2023-01-25T06:00:50.353Z,3.39
2023-01-25T06:03:18.427Z,3.21
2023-01-25T06:05:47.590Z,3.08
2023-01-25T06:08:15.599Z,3.05
2023-01-25T06:10:43.222Z,3.10
2023-01-25T06:13:11.728Z,3.30
2023-01-25T06:15:39.376Z,3.25
2023-01-25T06:18:07.774Z,3.04
2023-01-25T06:20:35.229Z,2.94
2023-01-25T06:23:04.601Z,2.99
2023-01-25T06:25:32.264Z,2.92
2023-01-25T06:28:00.336Z,2.98
2023-01-25T06:30:27.893Z,2.89
2023-01-25T06:32:58.174Z,2.75
2023-01-25T06:35:25.958Z,2.57
2023-01-25T06:37:55.814Z,2.46
2023-01-25T06:40:25.203Z,2.64
2023-01-25T06:42:53.534Z,2.73
2023-01-25T06:45:21.093Z,2.91
2023-01-25T06:47:49.631Z,2.98
2023-01-25T06:50:17.249Z,2.90
2023-01-25T06:52:52.607Z,3.12
2023-01-25T06:55:21.045Z,3.21
2023-01-25T06:57:50.425Z,3.09
2023-01-25T07:00:19.168Z,3.06
2023-01-25T07:02:47.126Z,3.11
2023-01-25T07:05:14.814Z,3.02
2023-01-25T07:07:45.697Z,2.78
2023-01-25T07:10:13.543Z,2.67
2023-01-25T07:12:41.644Z,2.50
2023-01-25T07:15:11.621Z,2.50
2023-01-25T07:17:39.986Z,2.37
2023-01-25T07:20:08.979Z,2.74
2023-01-25T07:22:36.935Z,2.88
2023-01-25T07:25:04.879Z,3.02
2023-01-25T07:27:33.876Z,3.13
2023-01-25T07:30:01.494Z,3.28
2023-01-25T07:32:30.926Z,2.97
2023-01-25T07:34:58.509Z,3.06
2023-01-25T07:37:26.585Z,3.01
2023-01-25T07:39:54.081Z,2.95
2023-01-25T07:42:22.258Z,2.48
2023-01-25T07:44:50.033Z,2.32
2023-01-25T07:47:18.350Z,2.59
2023-01-25T07:49:47.552Z,2.80
2023-01-25T07:52:15.380Z,2.71
2023-01-25T07:54:43.069Z,2.70
2023-01-25T07:57:11.231Z,2.68
2023-01-25T07:59:38.695Z,2.42
2023-01-25T08:02:08.214Z,2.42
2023-01-25T08:04:35.860Z,2.69
2023-01-25T08:07:05.788Z,2.54
2023-01-25T08:09:33.654Z,2.52
2023-01-25T08:12:01.566Z,2.65
2023-01-25T08:14:29.153Z,2.70
2023-01-25T08:16:57.319Z,2.61
2023-01-25T08:19:25.160Z,2.54
2023-01-25T08:21:53.130Z,2.76
2023-01-25T08:24:24.549Z,2.64
2023-01-25T08:26:54.113Z,2.68
2023-01-25T08:29:22.233Z,2.75
2023-01-25T08:31:50.807Z,2.68
2023-01-25T08:34:18.433Z,2.67
2023-01-25T08:36:46.597Z,2.59
2023-01-25T08:39:14.340Z,2.80
2023-01-25T08:41:44.263Z,3.07
2023-01-25T08:44:12.265Z,3.02
2023-01-25T08:46:40.827Z,3.20
2023-01-25T08:49:09.687Z,3.43
2023-01-25T08:51:37.795Z,3.54
2023-01-25T08:54:07.078Z,3.55
2023-01-25T08:56:37.324Z,3.57
2023-01-25T08:59:06.785Z,3.33
2023-01-25T09:01:34.770Z,3.11
2023-01-25T09:04:02.450Z,2.85
2023-01-25T09:06:31.157Z,3.06
2023-01-25T09:08:59.390Z,3.37
2023-01-25T09:11:27.455Z,3.36
2023-01-25T09:13:55.222Z,3.08
2023-01-25T09:16:25.895Z,2.90
2023-01-25T09:18:53.707Z,2.77
2023-01-25T09:21:22.593Z,2.99
2023-01-25T09:24:05.480Z,3.10
2023-01-25T09:26:35.115Z,3.47
2023-01-25T09:29:02.972Z,3.49
2023-01-25T09:31:32.584Z,3.19
2023-01-25T09:34:00.225Z,3.19
2023-01-25T09:36:28.365Z,3.09
2023-01-25T09:38:56.077Z,2.95
2023-01-25T09:42:00.784Z,2.86
2023-01-25T09:44:45.423Z,2.91
2023-01-25T09:47:24.897Z,2.93
2023-01-25T09:50:13.184Z,3.16
2023-01-25T09:53:25.438Z,2.85
2023-01-25T09:55:55.389Z,2.68
2023-01-25T09:58:29.572Z,2.82
2023-01-25T10:01:14.051Z,2.92
2023-01-25T10:03:53.405Z,3.04
2023-01-25T10:06:23.557Z,3.16
2023-01-25T10:08:57.632Z,3.27
2023-01-25T10:11:28.080Z,3.39
2023-01-25T10:13:57.771Z,3.30
2023-01-25T10:16:32.017Z,3.15
2023-01-25T10:19:13.553Z,3.18
2023-01-25T10:21:43.832Z,3.13
2023-01-25T10:24:40.249Z,3.06
2023-01-25T10:27:19.642Z,3.16
2023-01-25T10:29:48.682Z,3.06
2023-01-25T10:32:19.861Z,3.07
2023-01-25T10:34:56.737Z,3.05
2023-01-25T10:37:28.618Z,3.01
2023-01-25T10:40:03.085Z,3.07
2023-01-25T10:42:38.222Z,3.03
2023-01-25T10:45:12.008Z,3.24
2023-01-25T10:47:42.799Z,3.39
2023-01-25T10:50:43.170Z,3.55
2023-01-25T10:53:31.477Z,3.60
2023-01-25T10:56:22.064Z,3.29
2023-01-25T10:58:51.522Z,3.27
2023-01-25T11:01:29.037Z,3.34
2023-01-25T11:03:57.403Z,3.41
2023-01-25T11:06:36.120Z,3.56
2023-01-25T11:09:31.460Z,3.43
2023-01-25T11:12:01.785Z,3.48
2023-01-25T11:14:31.726Z,3.55
2023-01-25T11:17:01.734Z,3.70
2023-01-25T11:19:33.902Z,3.66
2023-01-25T11:22:05.642Z,3.63
2023-01-25T11:24:34.239Z,3.60
2023-01-25T11:27:23.926Z,3.71
2023-01-25T11:30:10.823Z,3.82
2023-01-25T11:32:40.398Z,3.81
2023-01-25T11:35:14.120Z,3.87
2023-01-25T11:38:02.263Z,3.65
2023-01-25T11:40:37.571Z,3.58
2023-01-25T11:43:22.210Z,3.99
2023-01-25T11:46:10.848Z,4.02
2023-01-25T11:48:54.610Z,3.98
2023-01-25T11:51:27.934Z,4.01
2023-01-25T11:54:36.040Z,3.95
2023-01-25T11:57:17.203Z,3.88
2023-01-25T12:00:01.396Z,3.97
2023-01-25T12:03:00.909Z,4.09
2023-01-25T12:05:42.678Z,4.02
2023-01-25T12:08:25.669Z,4.07
2023-01-25T12:11:06.493Z,4.13
2023-01-25T12:13:42.223Z,4.09
2023-01-25T12:16:23.276Z,3.95
2023-01-25T12:19:13.350Z,3.88
2023-01-25T12:21:54.588Z,3.78
2023-01-25T12:24:38.775Z,3.73
2023-01-25T12:27:21.717Z,3.63
2023-01-25T12:29:55.745Z,3.42
2023-01-25T12:32:30.786Z,3.51
2023-01-25T12:35:13.545Z,3.49
2023-01-25T12:37:44.097Z,3.57
2023-01-25T12:40:15.717Z,3.82
2023-01-25T12:42:52.272Z,4.04
2023-01-25T12:45:24.516Z,3.90
2023-01-25T12:47:57.117Z,3.82
2023-01-25T12:50:30.792Z,3.90
2023-01-25T12:53:02.958Z,4.02
2023-01-25T12:55:31.122Z,3.99
2023-01-25T12:58:07.455Z,3.87
2023-01-25T13:00:42.922Z,3.99
2023-01-25T13:03:27.496Z,4.00
2023-01-25T13:06:01.850Z,4.11
2023-01-25T13:08:40.344Z,4.12
2023-01-25T13:11:14.040Z,4.30
2023-01-25T13:16:38.652Z,4.36
2023-01-25T13:19:20.271Z,4.48
2023-01-25T13:21:49.602Z,4.49
2023-01-25T13:24:20.729Z,4.36
2023-01-25T13:27:03.507Z,4.29
2023-01-25T13:29:56.382Z,4.28
2023-01-25T13:33:03.911Z,4.23
2023-01-25T13:35:41.069Z,4.32
2023-01-25T13:38:33.135Z,4.34
2023-01-25T13:41:21.651Z,4.32
2023-01-25T13:44:08.287Z,4.02
2023-01-25T13:46:38.390Z,3.87
2023-01-25T13:49:14.994Z,3.69
2023-01-25T13:51:43.912Z,3.61
2023-01-25T13:54:16.848Z,3.68
2023-01-25T13:56:45.468Z,3.85
2023-01-25T13:59:27.106Z,3.83
2023-01-25T14:01:58.871Z,3.75
2023-01-25T14:04:27.130Z,3.79
2023-01-25T14:06:59.178Z,3.85
2023-01-25T14:09:27.112Z,3.83
2023-01-25T14:11:57.662Z,3.84
2023-01-25T14:14:27.316Z,3.89
2023-01-25T14:17:18.500Z,4.02
2023-01-25T14:19:49.124Z,3.99
2023-01-25T14:22:25.704Z,4.15
2023-01-25T14:25:13.127Z,4.20
2023-01-25T14:27:46.658Z,3.81
2023-01-25T14:30:18.073Z,3.77
2023-01-25T14:32:50.602Z,3.60
2023-01-25T14:35:43.159Z,3.75
2023-01-25T14:38:25.428Z,3.45
2023-01-25T14:40:57.194Z,3.52
2023-01-25T14:43:26.751Z,3.65
2023-01-25T14:45:54.827Z,3.80
2023-01-25T14:48:39.623Z,3.73
2023-01-25T14:51:13.314Z,3.52
2023-01-25T14:53:44.511Z,3.59
2023-01-25T14:56:24.256Z,3.56
2023-01-25T14:58:59.535Z,3.43
2023-01-25T15:01:38.049Z,3.69
2023-01-25T15:04:13.403Z,3.63
2023-01-25T15:06:49.670Z,3.46
2023-01-25T15:09:39.252Z,3.26
2023-01-25T15:12:26.693Z,3.34
2023-01-25T15:14:56.927Z,3.41
2023-01-25T15:17:42.237Z,3.48
2023-01-25T15:20:33.118Z,3.70
2023-01-25T15:23:02.825Z,3.75
2023-01-25T15:25:31.402Z,3.76
2023-01-25T15:27:59.055Z,3.55
2023-01-25T15:30:27.250Z,3.44
2023-01-25T15:32:55.481Z,3.29
2023-01-25T15:35:23.546Z,3.24
2023-01-25T15:37:52.670Z,3.32
2023-01-25T15:40:20.641Z,3.32
2023-01-25T15:42:48.414Z,3.33
2023-01-25T15:45:16.683Z,3.21
2023-01-25T15:47:44.289Z,3.29
2023-01-25T15:50:18.130Z,3.10
2023-01-25T15:52:46.816Z,3.37
2023-01-25T15:55:16.815Z,3.18
2023-01-25T15:57:44.365Z,3.29
2023-01-25T16:00:17.356Z,3.31
2023-01-25T16:02:44.975Z,3.22
2023-01-25T16:05:13.374Z,3.03
2023-01-25T16:07:44.115Z,3.09
2023-01-25T16:10:25.409Z,3.25
2023-01-25T16:12:52.851Z,3.15
2023-01-25T16:15:20.873Z,3.16
2023-01-25T16:17:48.698Z,3.18
2023-01-25T16:20:18.783Z,3.18
2023-01-25T16:22:46.672Z,3.02
2023-01-25T16:25:15.596Z,2.91
2023-01-25T16:27:44.755Z,2.93
2023-01-25T16:30:19.192Z,3.05
2023-01-25T16:32:47.311Z,3.03
2023-01-25T16:35:15.268Z,3.04
2023-01-25T16:37:43.117Z,3.02
2023-01-25T16:40:24.197Z,2.83
2023-01-25T16:42:53.329Z,2.81
2023-01-25T16:45:21.715Z,2.69
2023-01-25T16:47:49.991Z,2.78
2023-01-25T16:50:21.671Z,2.82
2023-01-25T16:52:49.946Z,2.80
2023-01-25T16:55:19.599Z,2.82
2023-01-25T16:57:51.024Z,2.78
2023-01-25T17:00:21.442Z,3.01
2023-01-25T17:02:58.778Z,2.77
2023-01-25T17:05:28.151Z,3.00
2023-01-25T17:07:55.846Z,3.21
2023-01-25T17:10:24.483Z,2.98
2023-01-25T17:12:52.202Z,2.98
2023-01-25T17:15:21.951Z,3.05
2023-01-25T17:17:49.835Z,2.90
2023-01-25T17:20:18.314Z,2.77
2023-01-25T17:22:45.975Z,2.70
2023-01-25T17:25:14.152Z,2.69
2023-01-25T17:27:42.148Z,2.75
2023-01-25T17:30:11.730Z,2.76
2023-01-25T17:32:41.129Z,2.73
2023-01-25T17:35:10.166Z,2.72
2023-01-25T17:37:37.783Z,2.84
2023-01-25T17:40:07.291Z,2.94
2023-01-25T17:42:35.405Z,2.98
2023-01-25T17:45:04.684Z,3.12
2023-01-25T17:47:33.680Z,3.08
2023-01-25T17:50:03.879Z,2.98
2023-01-25T17:52:31.969Z,3.11
2023-01-25T17:55:00.416Z,3.17
2023-01-25T17:57:30.637Z,3.28
2023-01-25T17:59:59.403Z,3.36
2023-01-25T18:02:27.714Z,3.10
2023-01-25T18:04:56.600Z,3.04
2023-01-25T18:07:26.045Z,2.93
2023-01-25T18:09:54.276Z,2.84
2023-01-25T18:12:22.129Z,3.03
2023-01-25T18:14:50.487Z,3.10
2023-01-25T18:17:18.199Z,3.25
2023-01-25T18:19:46.607Z,3.10
2023-01-25T18:22:14.466Z,2.89
2023-01-25T18:24:44.166Z,2.87
2023-01-25T18:27:19.069Z,2.82
2023-01-25T18:29:54.188Z,2.78
2023-01-25T18:32:21.947Z,2.73
2023-01-25T18:34:50.157Z,2.92
2023-01-25T18:37:18.039Z,2.75
2023-01-25T18:39:49.455Z,2.88
2023-01-25T18:42:17.290Z,2.81
2023-01-25T18:44:45.590Z,2.62
2023-01-25T18:47:13.346Z,2.75
2023-01-25T18:49:41.640Z,2.81
2023-01-25T18:52:11.901Z,2.71
2023-01-25T18:54:40.600Z,2.73
2023-01-25T18:57:10.028Z,2.85
2023-01-25T18:59:38.046Z,2.85
2023-01-25T19:02:07.004Z,3.01
2023-01-25T19:04:35.544Z,2.83
2023-01-25T19:07:03.834Z,2.90
2023-01-25T19:09:32.629Z,2.95
2023-01-25T19:12:00.435Z,2.86
2023-01-25T19:14:30.315Z,2.89
2023-01-25T19:16:57.970Z,3.04
2023-01-25T19:19:27.021Z,3.30
2023-01-25T19:21:55.007Z,3.40
2023-01-25T19:24:23.350Z,3.48
2023-01-25T19:26:51.167Z,3.40
2023-01-25T19:29:19.646Z,3.26
2023-01-25T19:31:49.193Z,3.02
2023-01-25T19:34:17.240Z,2.84
2023-01-25T19:36:45.489Z,3.13
2023-01-25T19:39:13.691Z,3.12
2023-01-25T19:41:41.831Z,3.20
2023-01-25T19:44:12.510Z,3.15
2023-01-25T19:46:40.667Z,3.16
2023-01-25T19:49:11.268Z,3.26
2023-01-25T19:51:40.128Z,3.01
2023-01-25T19:54:11.780Z,2.73
2023-01-25T19:56:40.880Z,2.58
2023-01-25T19:59:12.230Z,2.61
2023-01-25T20:01:39.971Z,2.44
2023-01-25T20:04:10.110Z,2.22
2023-01-25T20:06:37.792Z,2.16
2023-01-25T20:09:06.133Z,2.17
2023-01-25T20:11:34.458Z,2.19
2023-01-25T20:14:05.031Z,2.03
2023-01-25T20:16:35.008Z,2.27
2023-01-25T20:19:04.745Z,2.28
2023-01-25T20:21:34.832Z,2.25
2023-01-25T20:24:05.077Z,1.99
2023-01-25T20:26:35.135Z,1.94
2023-01-25T20:29:04.987Z,2.11
2023-01-25T20:31:34.631Z,2.02
2023-01-25T20:34:05.528Z,2.02
2023-01-25T20:36:38.687Z,2.13
2023-01-25T20:39:07.760Z,2.02
2023-01-25T20:41:35.965Z,2.02
2023-01-25T20:44:04.910Z,2.07
2023-01-25T20:46:33.944Z,2.16
2023-01-25T20:49:02.561Z,2.26
2023-01-25T20:51:31.898Z,2.18
2023-01-25T20:54:01.795Z,2.36
2023-01-25T20:56:31.084Z,2.57
2023-01-25T20:58:59.021Z,2.74
2023-01-25T21:01:30.026Z,2.88
2023-01-25T21:03:58.810Z,3.05
2023-01-25T21:06:28.034Z,3.17
2023-01-25T21:08:56.370Z,3.29
2023-01-25T21:11:26.460Z,3.36
2023-01-25T21:13:54.366Z,3.32
2023-01-25T21:16:23.683Z,3.46
2023-01-25T21:18:52.706Z,3.38
2023-01-25T21:21:22.513Z,3.50
2023-01-25T21:23:51.414Z,3.45
2023-01-25T21:26:21.381Z,3.52
2023-01-25T21:28:52.056Z,3.61
2023-01-25T21:31:22.561Z,3.64
2023-01-25T21:33:50.553Z,3.67
2023-01-25T21:36:19.642Z,3.76
2023-01-25T21:38:49.009Z,3.81
2023-01-25T21:41:18.799Z,3.77
2023-01-25T21:43:46.766Z,3.79
2023-01-25T21:46:16.589Z,3.88
2023-01-25T21:48:44.703Z,3.87
2023-01-25T21:51:13.116Z,3.78
2023-01-25T21:53:41.089Z,3.93
2023-01-25T21:56:09.140Z,3.82
2023-01-25T21:58:36.862Z,3.86
2023-01-25T22:01:05.743Z,3.62
2023-01-25T22:03:34.870Z,3.41
2023-01-25T22:06:03.278Z,3.64
2023-01-25T22:08:31.463Z,3.69
2023-01-25T22:11:03.643Z,3.59
2023-01-25T22:13:31.488Z,3.65
2023-01-25T22:16:00.294Z,3.76
2023-01-25T22:18:33.198Z,3.88
2023-01-25T22:21:05.789Z,3.93
2023-01-25T22:23:34.107Z,4.00
2023-01-25T22:26:04.133Z,3.90
2023-01-25T22:28:33.955Z,3.91
2023-01-25T22:31:01.964Z,4.07
2023-01-25T22:33:29.645Z,4.05
2023-01-25T22:35:57.638Z,4.08
2023-01-25T22:38:26.586Z,4.04
2023-01-25T22:40:56.432Z,3.96
2023-01-25T22:43:24.514Z,3.69
2023-01-25T22:45:53.000Z,3.78
2023-01-25T22:48:20.653Z,3.80
2023-01-25T22:50:49.505Z,3.78
2023-01-25T22:53:17.146Z,3.73
2023-01-25T22:55:46.872Z,3.77
2023-01-25T22:58:14.332Z,3.55
2023-01-25T23:00:42.839Z,3.57
2023-01-25T23:03:11.086Z,3.67
2023-01-25T23:05:39.351Z,3.82
2023-01-25T23:08:06.998Z,3.92
2023-01-25T23:10:35.086Z,3.99
2023-01-25T23:13:04.419Z,3.93
2023-01-25T23:15:32.772Z,3.86
2023-01-25T23:18:00.727Z,3.88
2023-01-25T23:20:29.558Z,3.75
2023-01-25T23:22:57.162Z,3.72
2023-01-25T23:25:25.850Z,3.76
2023-01-25T23:27:53.654Z,3.68
2023-01-25T23:30:23.679Z,3.67
2023-01-25T23:32:51.424Z,3.67
2023-01-25T23:35:21.056Z,3.58
2023-01-25T23:37:48.666Z,3.46
2023-01-25T23:40:17.171Z,3.52
2023-01-25T23:42:44.976Z,3.48
2023-01-25T23:45:13.495Z,3.35
2023-01-25T23:47:42.467Z,3.37
2023-01-25T23:50:12.182Z,3.36
2023-01-25T23:52:39.780Z,3.46
2023-01-25T23:55:08.931Z,3.42
2023-01-25T23:57:36.529Z,3.38
